Terminal Aerodrome Forecast
Issued by NWS

Home | Current Version | Previous Version | Graphics & Text | Print | Product List | Glossary On
Versions: 1 2 3 4 5 6 7 8 9 10 11 12 13 14 15 16 17 18 19 20 21
000
FTUS45 KGGW 221300 AAA
TAFSDY
TAF AMD
KSDY 221340Z 2214/2312 30016G27KT 2SM -SN SCT010 OVC020
      TEMPO 2214/2216 1SM -SN BKN010
     FM222200 31019G27KT 5SM -SN OVC024
     FM230200 32015KT P6SM OVC020
      AMD LTD TO CLD VIS AND WIND=

USA.gov is the U.S. government's official web portal to all federal, state and local government web resources and services.